sensor_id;sensor_type;location;lat;lon;timestamp;P1;durP1;ratioP1;P2;durP2;ratioP2
5153;SDS011;2595;53.584;10.084;2022-12-29T00:02:13;3.10;;;2.80;;
5153;SDS011;2595;53.584;10.084;2022-12-29T00:04:39;3.30;;;3.20;;
5153;SDS011;2595;53.584;10.084;2022-12-29T00:07:05;3.60;;;3.37;;
5153;SDS011;2595;53.584;10.084;2022-12-29T00:09:32;3.30;;;3.20;;
5153;SDS011;2595;53.584;10.084;2022-12-29T00:11:58;3.23;;;3.03;;
5153;SDS011;2595;53.584;10.084;2022-12-29T00:14:24;3.37;;;3.27;;
5153;SDS011;2595;53.584;10.084;2022-12-29T00:17:08;3.17;;;3.07;;
5153;SDS011;2595;53.584;10.084;2022-12-29T00:19:34;3.60;;;3.40;;
5153;SDS011;2595;53.584;10.084;2022-12-29T00:22:18;3.17;;;2.97;;
5153;SDS011;2595;53.584;10.084;2022-12-29T00:25:03;3.00;;;2.90;;
5153;SDS011;2595;53.584;10.084;2022-12-29T00:27:47;3.40;;;3.20;;
5153;SDS011;2595;53.584;10.084;2022-12-29T00:30:32;3.77;;;3.57;;
5153;SDS011;2595;53.584;10.084;2022-12-29T00:33:16;3.50;;;3.30;;
5153;SDS011;2595;53.584;10.084;2022-12-29T00:38:31;4.07;;;3.77;;
5153;SDS011;2595;53.584;10.084;2022-12-29T00:41:17;4.30;;;4.00;;
5153;SDS011;2595;53.584;10.084;2022-12-29T00:44:01;3.60;;;3.40;;
5153;SDS011;2595;53.584;10.084;2022-12-29T00:46:29;4.10;;;3.90;;
5153;SDS011;2595;53.584;10.084;2022-12-29T00:48:59;4.00;;;3.80;;
5153;SDS011;2595;53.584;10.084;2022-12-29T00:51:43;4.00;;;3.80;;
5153;SDS011;2595;53.584;10.084;2022-12-29T00:54:09;3.50;;;3.40;;
5153;SDS011;2595;53.584;10.084;2022-12-29T00:56:35;3.67;;;3.47;;
5153;SDS011;2595;53.584;10.084;2022-12-29T00:59:01;3.20;;;3.10;;
5153;SDS011;2595;53.584;10.084;2022-12-29T01:01:28;3.70;;;3.40;;
5153;SDS011;2595;53.584;10.084;2022-12-29T01:03:53;3.97;;;3.67;;
5153;SDS011;2595;53.584;10.084;2022-12-29T01:06:19;3.70;;;3.50;;
5153;SDS011;2595;53.584;10.084;2022-12-29T01:08:44;3.93;;;3.73;;
5153;SDS011;2595;53.584;10.084;2022-12-29T01:11:11;3.97;;;3.77;;
5153;SDS011;2595;53.584;10.084;2022-12-29T01:13:38;3.90;;;3.70;;
5153;SDS011;2595;53.584;10.084;2022-12-29T01:16:05;3.70;;;3.50;;
5153;SDS011;2595;53.584;10.084;2022-12-29T01:18:32;3.70;;;3.50;;
5153;SDS011;2595;53.584;10.084;2022-12-29T01:20:58;3.50;;;3.30;;
5153;SDS011;2595;53.584;10.084;2022-12-29T01:23:28;3.13;;;2.93;;
5153;SDS011;2595;53.584;10.084;2022-12-29T01:25:56;3.47;;;3.37;;
5153;SDS011;2595;53.584;10.084;2022-12-29T01:28:21;3.53;;;3.13;;
5153;SDS011;2595;53.584;10.084;2022-12-29T01:30:47;3.77;;;3.57;;
5153;SDS011;2595;53.584;10.084;2022-12-29T01:33:13;3.97;;;3.77;;
5153;SDS011;2595;53.584;10.084;2022-12-29T01:35:38;4.67;;;4.33;;
5153;SDS011;2595;53.584;10.084;2022-12-29T01:38:04;3.33;;;3.13;;
5153;SDS011;2595;53.584;10.084;2022-12-29T01:40:30;4.03;;;3.80;;
5153;SDS011;2595;53.584;10.084;2022-12-29T01:42:56;3.33;;;3.13;;
5153;SDS011;2595;53.584;10.084;2022-12-29T01:45:21;3.00;;;2.90;;
5153;SDS011;2595;53.584;10.084;2022-12-29T01:47:52;3.60;;;3.50;;
5153;SDS011;2595;53.584;10.084;2022-12-29T01:53:02;3.83;;;3.53;;
5153;SDS011;2595;53.584;10.084;2022-12-29T01:55:56;4.50;;;4.30;;
5153;SDS011;2595;53.584;10.084;2022-12-29T01:58:26;3.17;;;3.07;;
5153;SDS011;2595;53.584;10.084;2022-12-29T02:00:55;4.40;;;4.20;;
5153;SDS011;2595;53.584;10.084;2022-12-29T02:03:21;5.63;;;5.43;;
5153;SDS011;2595;53.584;10.084;2022-12-29T02:05:55;3.90;;;3.70;;
5153;SDS011;2595;53.584;10.084;2022-12-29T02:08:45;4.20;;;4.00;;
5153;SDS011;2595;53.584;10.084;2022-12-29T02:11:12;4.87;;;4.67;;
5153;SDS011;2595;53.584;10.084;2022-12-29T02:13:38;4.53;;;4.33;;
5153;SDS011;2595;53.584;10.084;2022-12-29T02:39:05;5.00;;;4.77;;
5153;SDS011;2595;53.584;10.084;2022-12-29T02:41:55;5.53;;;5.13;;
5153;SDS011;2595;53.584;10.084;2022-12-29T02:53:02;4.00;;;3.80;;
5153;SDS011;2595;53.584;10.084;2022-12-29T02:55:31;3.97;;;3.77;;
5153;SDS011;2595;53.584;10.084;2022-12-29T02:58:17;4.57;;;4.37;;
5153;SDS011;2595;53.584;10.084;2022-12-29T03:00:53;4.13;;;3.93;;
5153;SDS011;2595;53.584;10.084;2022-12-29T03:03:46;4.63;;;4.20;;
5153;SDS011;2595;53.584;10.084;2022-12-29T03:06:38;4.13;;;3.93;;
5153;SDS011;2595;53.584;10.084;2022-12-29T03:15:27;4.80;;;4.40;;
5153;SDS011;2595;53.584;10.084;2022-12-29T03:18:21;3.83;;;3.63;;
5153;SDS011;2595;53.584;10.084;2022-12-29T03:23:20;3.77;;;3.57;;
5153;SDS011;2595;53.584;10.084;2022-12-29T03:25:47;3.70;;;3.50;;
5153;SDS011;2595;53.584;10.084;2022-12-29T03:28:20;3.37;;;3.27;;
5153;SDS011;2595;53.584;10.084;2022-12-29T03:31:08;3.77;;;3.57;;
5153;SDS011;2595;53.584;10.084;2022-12-29T03:33:35;4.07;;;3.80;;
5153;SDS011;2595;53.584;10.084;2022-12-29T03:36:03;3.80;;;3.60;;
5153;SDS011;2595;53.584;10.084;2022-12-29T03:38:40;3.80;;;3.60;;
5153;SDS011;2595;53.584;10.084;2022-12-29T03:41:11;3.63;;;3.43;;
5153;SDS011;2595;53.584;10.084;2022-12-29T03:43:41;3.07;;;2.90;;
5153;SDS011;2595;53.584;10.084;2022-12-29T03:46:06;4.00;;;3.70;;
5153;SDS011;2595;53.584;10.084;2022-12-29T03:48:32;3.10;;;2.90;;
5153;SDS011;2595;53.584;10.084;2022-12-29T03:50:58;5.93;;;3.00;;
5153;SDS011;2595;53.584;10.084;2022-12-29T03:53:23;3.70;;;3.50;;
5153;SDS011;2595;53.584;10.084;2022-12-29T03:55:49;2.77;;;2.67;;
5153;SDS011;2595;53.584;10.084;2022-12-29T03:58:15;3.37;;;2.93;;
5153;SDS011;2595;53.584;10.084;2022-12-29T04:00:41;3.33;;;3.23;;
5153;SDS011;2595;53.584;10.084;2022-12-29T04:03:06;2.97;;;2.77;;
5153;SDS011;2595;53.584;10.084;2022-12-29T04:05:32;2.70;;;2.50;;
5153;SDS011;2595;53.584;10.084;2022-12-29T04:07:57;3.13;;;2.93;;
5153;SDS011;2595;53.584;10.084;2022-12-29T04:10:23;2.73;;;2.63;;
5153;SDS011;2595;53.584;10.084;2022-12-29T04:12:48;2.73;;;2.53;;
5153;SDS011;2595;53.584;10.084;2022-12-29T04:15:14;3.00;;;2.70;;
5153;SDS011;2595;53.584;10.084;2022-12-29T04:17:40;3.10;;;2.83;;
5153;SDS011;2595;53.584;10.084;2022-12-29T04:20:05;3.07;;;2.43;;
5153;SDS011;2595;53.584;10.084;2022-12-29T04:22:57;2.57;;;2.37;;
5153;SDS011;2595;53.584;10.084;2022-12-29T04:25:30;2.30;;;2.20;;
5153;SDS011;2595;53.584;10.084;2022-12-29T04:27:55;2.30;;;2.20;;
5153;SDS011;2595;53.584;10.084;2022-12-29T04:30:21;2.40;;;2.30;;
5153;SDS011;2595;53.584;10.084;2022-12-29T04:32:47;2.63;;;2.43;;
5153;SDS011;2595;53.584;10.084;2022-12-29T04:35:13;2.40;;;2.30;;
5153;SDS011;2595;53.584;10.084;2022-12-29T04:37:38;2.00;;;1.90;;
5153;SDS011;2595;53.584;10.084;2022-12-29T04:40:04;2.20;;;2.10;;
5153;SDS011;2595;53.584;10.084;2022-12-29T04:42:30;2.40;;;2.00;;
5153;SDS011;2595;53.584;10.084;2022-12-29T04:44:55;1.63;;;1.53;;
5153;SDS011;2595;53.584;10.084;2022-12-29T04:47:21;2.07;;;1.97;;
5153;SDS011;2595;53.584;10.084;2022-12-29T04:49:47;6.67;;;2.27;;
5153;SDS011;2595;53.584;10.084;2022-12-29T04:52:12;2.97;;;2.10;;
5153;SDS011;2595;53.584;10.084;2022-12-29T04:54:38;1.60;;;1.50;;
5153;SDS011;2595;53.584;10.084;2022-12-29T04:57:04;2.03;;;1.93;;
5153;SDS011;2595;53.584;10.084;2022-12-29T04:59:30;2.33;;;2.23;;
5153;SDS011;2595;53.584;10.084;2022-12-29T05:01:55;1.87;;;1.77;;
5153;SDS011;2595;53.584;10.084;2022-12-29T05:04:21;2.30;;;2.20;;
5153;SDS011;2595;53.584;10.084;2022-12-29T05:06:47;2.43;;;2.00;;
5153;SDS011;2595;53.584;10.084;2022-12-29T05:09:12;1.80;;;1.70;;
5153;SDS011;2595;53.584;10.084;2022-12-29T05:11:38;2.30;;;2.20;;
5153;SDS011;2595;53.584;10.084;2022-12-29T05:14:04;2.60;;;2.40;;
5153;SDS011;2595;53.584;10.084;2022-12-29T05:16:29;2.33;;;2.23;;
5153;SDS011;2595;53.584;10.084;2022-12-29T05:18:55;1.90;;;1.80;;
5153;SDS011;2595;53.584;10.084;2022-12-29T05:21:21;2.50;;;2.30;;
5153;SDS011;2595;53.584;10.084;2022-12-29T05:23:46;2.33;;;2.13;;
5153;SDS011;2595;53.584;10.084;2022-12-29T05:26:12;2.80;;;2.10;;
5153;SDS011;2595;53.584;10.084;2022-12-29T05:28:37;2.13;;;2.03;;
5153;SDS011;2595;53.584;10.084;2022-12-29T05:31:03;1.60;;;1.50;;
5153;SDS011;2595;53.584;10.084;2022-12-29T05:33:28;3.60;;;2.27;;
5153;SDS011;2595;53.584;10.084;2022-12-29T05:35:54;2.60;;;2.50;;
5153;SDS011;2595;53.584;10.084;2022-12-29T05:38:20;2.00;;;1.90;;
5153;SDS011;2595;53.584;10.084;2022-12-29T05:40:45;2.07;;;1.97;;
5153;SDS011;2595;53.584;10.084;2022-12-29T05:43:11;2.40;;;2.30;;
5153;SDS011;2595;53.584;10.084;2022-12-29T05:45:36;2.10;;;2.00;;
5153;SDS011;2595;53.584;10.084;2022-12-29T05:48:02;1.90;;;1.80;;
5153;SDS011;2595;53.584;10.084;2022-12-29T05:50:28;2.97;;;1.90;;
5153;SDS011;2595;53.584;10.084;2022-12-29T05:52:54;2.23;;;2.03;;
5153;SDS011;2595;53.584;10.084;2022-12-29T05:55:19;2.47;;;2.27;;
5153;SDS011;2595;53.584;10.084;2022-12-29T05:57:45;1.90;;;1.80;;
5153;SDS011;2595;53.584;10.084;2022-12-29T06:00:11;2.00;;;1.90;;
5153;SDS011;2595;53.584;10.084;2022-12-29T06:02:36;2.30;;;2.20;;
5153;SDS011;2595;53.584;10.084;2022-12-29T06:05:02;1.60;;;1.50;;
5153;SDS011;2595;53.584;10.084;2022-12-29T06:07:28;2.23;;;1.90;;
5153;SDS011;2595;53.584;10.084;2022-12-29T06:09:53;2.27;;;2.07;;
5153;SDS011;2595;53.584;10.084;2022-12-29T06:12:19;2.00;;;1.90;;
5153;SDS011;2595;53.584;10.084;2022-12-29T06:14:45;2.13;;;1.70;;
5153;SDS011;2595;53.584;10.084;2022-12-29T06:17:10;1.80;;;1.70;;
5153;SDS011;2595;53.584;10.084;2022-12-29T06:19:36;2.17;;;2.07;;
5153;SDS011;2595;53.584;10.084;2022-12-29T06:22:01;2.07;;;1.97;;
5153;SDS011;2595;53.584;10.084;2022-12-29T06:24:27;1.80;;;1.70;;
5153;SDS011;2595;53.584;10.084;2022-12-29T06:26:53;2.17;;;2.07;;
5153;SDS011;2595;53.584;10.084;2022-12-29T06:29:18;1.77;;;1.67;;
5153;SDS011;2595;53.584;10.084;2022-12-29T06:31:45;1.67;;;1.57;;
5153;SDS011;2595;53.584;10.084;2022-12-29T06:34:11;2.00;;;1.90;;
5153;SDS011;2595;53.584;10.084;2022-12-29T06:36:37;1.83;;;1.70;;
5153;SDS011;2595;53.584;10.084;2022-12-29T06:39:03;1.43;;;1.33;;
5153;SDS011;2595;53.584;10.084;2022-12-29T06:41:29;1.70;;;1.60;;
5153;SDS011;2595;53.584;10.084;2022-12-29T06:43:55;1.37;;;1.37;;
5153;SDS011;2595;53.584;10.084;2022-12-29T06:46:20;1.73;;;1.63;;
5153;SDS011;2595;53.584;10.084;2022-12-29T06:48:46;1.47;;;1.40;;
5153;SDS011;2595;53.584;10.084;2022-12-29T06:51:11;2.13;;;2.03;;
5153;SDS011;2595;53.584;10.084;2022-12-29T06:53:37;1.50;;;1.40;;
5153;SDS011;2595;53.584;10.084;2022-12-29T06:56:03;1.23;;;1.20;;
5153;SDS011;2595;53.584;10.084;2022-12-29T06:58:28;1.67;;;1.57;;
5153;SDS011;2595;53.584;10.084;2022-12-29T07:00:54;1.60;;;1.50;;
5153;SDS011;2595;53.584;10.084;2022-12-29T07:03:20;3.13;;;1.90;;
5153;SDS011;2595;53.584;10.084;2022-12-29T07:05:45;1.83;;;1.73;;
5153;SDS011;2595;53.584;10.084;2022-12-29T07:08:11;1.40;;;1.30;;
5153;SDS011;2595;53.584;10.084;2022-12-29T07:10:36;1.70;;;1.20;;
5153;SDS011;2595;53.584;10.084;2022-12-29T07:13:02;1.50;;;1.40;;
5153;SDS011;2595;53.584;10.084;2022-12-29T07:15:27;1.50;;;1.40;;
5153;SDS011;2595;53.584;10.084;2022-12-29T07:17:53;3.63;;;1.43;;
5153;SDS011;2595;53.584;10.084;2022-12-29T07:20:19;1.70;;;1.60;;
5153;SDS011;2595;53.584;10.084;2022-12-29T07:22:44;1.70;;;1.60;;
5153;SDS011;2595;53.584;10.084;2022-12-29T07:25:12;2.30;;;2.10;;
5153;SDS011;2595;53.584;10.084;2022-12-29T07:27:37;1.83;;;1.73;;
5153;SDS011;2595;53.584;10.084;2022-12-29T07:30:03;2.00;;;1.90;;
5153;SDS011;2595;53.584;10.084;2022-12-29T07:32:31;2.50;;;2.30;;
5153;SDS011;2595;53.584;10.084;2022-12-29T07:34:58;2.20;;;2.10;;
5153;SDS011;2595;53.584;10.084;2022-12-29T07:37:24;2.00;;;1.90;;
5153;SDS011;2595;53.584;10.084;2022-12-29T07:39:49;2.73;;;2.53;;
5153;SDS011;2595;53.584;10.084;2022-12-29T07:42:15;6.63;;;2.23;;
5153;SDS011;2595;53.584;10.084;2022-12-29T07:44:40;2.13;;;2.03;;
5153;SDS011;2595;53.584;10.084;2022-12-29T07:47:06;2.10;;;2.00;;
5153;SDS011;2595;53.584;10.084;2022-12-29T07:49:32;2.53;;;2.43;;
5153;SDS011;2595;53.584;10.084;2022-12-29T07:51:57;2.30;;;2.20;;
5153;SDS011;2595;53.584;10.084;2022-12-29T07:54:23;2.90;;;2.70;;
5153;SDS011;2595;53.584;10.084;2022-12-29T07:56:48;2.83;;;2.67;;
5153;SDS011;2595;53.584;10.084;2022-12-29T07:59:14;2.57;;;2.37;;
5153;SDS011;2595;53.584;10.084;2022-12-29T08:01:39;2.53;;;2.13;;
5153;SDS011;2595;53.584;10.084;2022-12-29T08:04:06;1.73;;;1.63;;
5153;SDS011;2595;53.584;10.084;2022-12-29T08:06:32;2.13;;;2.00;;
5153;SDS011;2595;53.584;10.084;2022-12-29T08:08:58;2.30;;;2.20;;
5153;SDS011;2595;53.584;10.084;2022-12-29T08:11:25;1.33;;;1.27;;
5153;SDS011;2595;53.584;10.084;2022-12-29T08:13:51;1.77;;;1.67;;
5153;SDS011;2595;53.584;10.084;2022-12-29T08:16:16;1.47;;;1.40;;
5153;SDS011;2595;53.584;10.084;2022-12-29T08:18:42;1.77;;;1.67;;
5153;SDS011;2595;53.584;10.084;2022-12-29T08:21:08;1.80;;;1.70;;
5153;SDS011;2595;53.584;10.084;2022-12-29T08:23:33;1.37;;;1.27;;
5153;SDS011;2595;53.584;10.084;2022-12-29T08:25:59;1.60;;;1.50;;
5153;SDS011;2595;53.584;10.084;2022-12-29T08:28:26;1.53;;;1.43;;
5153;SDS011;2595;53.584;10.084;2022-12-29T08:30:52;1.87;;;1.77;;
5153;SDS011;2595;53.584;10.084;2022-12-29T08:33:18;2.43;;;2.07;;
5153;SDS011;2595;53.584;10.084;2022-12-29T08:35:44;1.67;;;1.57;;
5153;SDS011;2595;53.584;10.084;2022-12-29T08:38:09;2.13;;;1.93;;
5153;SDS011;2595;53.584;10.084;2022-12-29T08:40:38;1.90;;;1.80;;
5153;SDS011;2595;53.584;10.084;2022-12-29T08:43:03;3.40;;;2.53;;
5153;SDS011;2595;53.584;10.084;2022-12-29T08:45:30;1.83;;;1.73;;
5153;SDS011;2595;53.584;10.084;2022-12-29T08:47:56;1.83;;;1.73;;
5153;SDS011;2595;53.584;10.084;2022-12-29T08:50:21;1.80;;;1.70;;
5153;SDS011;2595;53.584;10.084;2022-12-29T08:52:47;2.00;;;1.83;;
5153;SDS011;2595;53.584;10.084;2022-12-29T08:55:12;2.87;;;1.47;;
5153;SDS011;2595;53.584;10.084;2022-12-29T08:57:38;1.90;;;1.80;;
5153;SDS011;2595;53.584;10.084;2022-12-29T09:00:04;1.50;;;1.40;;
5153;SDS011;2595;53.584;10.084;2022-12-29T09:02:30;5.60;;;1.80;;
5153;SDS011;2595;53.584;10.084;2022-12-29T09:04:56;1.80;;;1.70;;
5153;SDS011;2595;53.584;10.084;2022-12-29T09:07:25;1.23;;;1.13;;
5153;SDS011;2595;53.584;10.084;2022-12-29T09:09:51;1.27;;;1.17;;
5153;SDS011;2595;53.584;10.084;2022-12-29T09:12:17;3.10;;;1.50;;
5153;SDS011;2595;53.584;10.084;2022-12-29T09:14:43;5.13;;;1.47;;
5153;SDS011;2595;53.584;10.084;2022-12-29T09:17:10;2.00;;;1.43;;
5153;SDS011;2595;53.584;10.084;2022-12-29T09:19:55;1.50;;;1.40;;
5153;SDS011;2595;53.584;10.084;2022-12-29T09:22:20;1.83;;;1.10;;
5153;SDS011;2595;53.584;10.084;2022-12-29T09:24:46;1.50;;;1.40;;
5153;SDS011;2595;53.584;10.084;2022-12-29T09:27:12;1.40;;;1.30;;
5153;SDS011;2595;53.584;10.084;2022-12-29T09:29:37;1.00;;;1.00;;
5153;SDS011;2595;53.584;10.084;2022-12-29T09:32:03;3.67;;;1.00;;
5153;SDS011;2595;53.584;10.084;2022-12-29T09:34:29;1.60;;;1.10;;
5153;SDS011;2595;53.584;10.084;2022-12-29T09:36:54;3.60;;;1.03;;
5153;SDS011;2595;53.584;10.084;2022-12-29T09:39:21;2.50;;;1.10;;
5153;SDS011;2595;53.584;10.084;2022-12-29T09:44:26;1.93;;;1.30;;
5153;SDS011;2595;53.584;10.084;2022-12-29T09:47:06;4.10;;;1.30;;
5153;SDS011;2595;53.584;10.084;2022-12-29T09:49:40;3.13;;;1.40;;
5153;SDS011;2595;53.584;10.084;2022-12-29T09:52:28;1.30;;;1.20;;
5153;SDS011;2595;53.584;10.084;2022-12-29T09:57:38;4.40;;;1.23;;
5153;SDS011;2595;53.584;10.084;2022-12-29T10:00:21;4.93;;;1.73;;
5153;SDS011;2595;53.584;10.084;2022-12-29T10:02:57;7.00;;;1.50;;
5153;SDS011;2595;53.584;10.084;2022-12-29T10:11:32;1.87;;;1.37;;
5153;SDS011;2595;53.584;10.084;2022-12-29T10:14:17;1.87;;;1.27;;
5153;SDS011;2595;53.584;10.084;2022-12-29T10:20:10;1.80;;;1.20;;
5153;SDS011;2595;53.584;10.084;2022-12-29T10:25:02;1.50;;;1.33;;
5153;SDS011;2595;53.584;10.084;2022-12-29T10:27:57;3.33;;;1.30;;
5153;SDS011;2595;53.584;10.084;2022-12-29T10:30:25;1.20;;;1.10;;
5153;SDS011;2595;53.584;10.084;2022-12-29T10:32:58;1.83;;;1.40;;
5153;SDS011;2595;53.584;10.084;2022-12-29T10:35:38;1.70;;;1.57;;
5153;SDS011;2595;53.584;10.084;2022-12-29T10:41:15;4.33;;;1.73;;
5153;SDS011;2595;53.584;10.084;2022-12-29T10:43:46;1.90;;;1.30;;
5153;SDS011;2595;53.584;10.084;2022-12-29T10:46:14;5.53;;;1.93;;
5153;SDS011;2595;53.584;10.084;2022-12-29T10:48:43;1.93;;;1.17;;
5153;SDS011;2595;53.584;10.084;2022-12-29T10:51:11;1.73;;;1.20;;
5153;SDS011;2595;53.584;10.084;2022-12-29T10:53:47;1.53;;;1.37;;
5153;SDS011;2595;53.584;10.084;2022-12-29T10:56:34;4.70;;;1.60;;
5153;SDS011;2595;53.584;10.084;2022-12-29T10:59:10;2.23;;;1.33;;
5153;SDS011;2595;53.584;10.084;2022-12-29T11:07:27;3.33;;;1.47;;
5153;SDS011;2595;53.584;10.084;2022-12-29T11:09:55;3.20;;;1.30;;
5153;SDS011;2595;53.584;10.084;2022-12-29T11:12:40;1.23;;;1.10;;
5153;SDS011;2595;53.584;10.084;2022-12-29T11:15:19;1.50;;;1.30;;
5153;SDS011;2595;53.584;10.084;2022-12-29T11:23:04;3.27;;;1.40;;
5153;SDS011;2595;53.584;10.084;2022-12-29T11:25:45;2.90;;;2.63;;
5153;SDS011;2595;53.584;10.084;2022-12-29T11:28:14;6.83;;;1.67;;
5153;SDS011;2595;53.584;10.084;2022-12-29T11:30:41;3.53;;;1.57;;
5153;SDS011;2595;53.584;10.084;2022-12-29T11:33:07;6.43;;;1.93;;
5153;SDS011;2595;53.584;10.084;2022-12-29T11:37:59;6.10;;;1.50;;
5153;SDS011;2595;53.584;10.084;2022-12-29T11:40:26;1.90;;;1.67;;
5153;SDS011;2595;53.584;10.084;2022-12-29T11:42:56;1.37;;;1.20;;
5153;SDS011;2595;53.584;10.084;2022-12-29T11:45:28;2.47;;;1.83;;
5153;SDS011;2595;53.584;10.084;2022-12-29T11:48:13;2.77;;;1.30;;
5153;SDS011;2595;53.584;10.084;2022-12-29T11:50:48;6.10;;;1.50;;
5153;SDS011;2595;53.584;10.084;2022-12-29T11:53:20;3.47;;;1.20;;
5153;SDS011;2595;53.584;10.084;2022-12-29T11:55:53;1.70;;;1.00;;
5153;SDS011;2595;53.584;10.084;2022-12-29T11:58:31;5.07;;;1.27;;
5153;SDS011;2595;53.584;10.084;2022-12-29T12:01:00;1.77;;;1.63;;
5153;SDS011;2595;53.584;10.084;2022-12-29T12:03:32;1.53;;;1.37;;
5153;SDS011;2595;53.584;10.084;2022-12-29T12:06:01;1.30;;;1.20;;
5153;SDS011;2595;53.584;10.084;2022-12-29T12:11:32;1.67;;;1.20;;
5153;SDS011;2595;53.584;10.084;2022-12-29T12:16:52;2.57;;;1.20;;
5153;SDS011;2595;53.584;10.084;2022-12-29T12:19:23;1.63;;;1.20;;
5153;SDS011;2595;53.584;10.084;2022-12-29T12:21:52;1.93;;;1.00;;
5153;SDS011;2595;53.584;10.084;2022-12-29T12:30:11;8.07;;;1.77;;
5153;SDS011;2595;53.584;10.084;2022-12-29T12:38:37;5.73;;;1.70;;
5153;SDS011;2595;53.584;10.084;2022-12-29T12:44:46;4.77;;;1.60;;
5153;SDS011;2595;53.584;10.084;2022-12-29T12:47:23;5.27;;;2.00;;
5153;SDS011;2595;53.584;10.084;2022-12-29T13:00:49;2.23;;;1.57;;
5153;SDS011;2595;53.584;10.084;2022-12-29T13:03:59;3.40;;;1.40;;
5153;SDS011;2595;53.584;10.084;2022-12-29T13:06:18;5.03;;;1.90;;
5153;SDS011;2595;53.584;10.084;2022-12-29T13:14:29;10.77;;;1.87;;
5153;SDS011;2595;53.584;10.084;2022-12-29T13:19:40;2.23;;;1.33;;
5153;SDS011;2595;53.584;10.084;2022-12-29T13:22:33;2.33;;;1.40;;
5153;SDS011;2595;53.584;10.084;2022-12-29T13:28:42;2.43;;;1.90;;
5153;SDS011;2595;53.584;10.084;2022-12-29T13:34:53;1.43;;;1.10;;
5153;SDS011;2595;53.584;10.084;2022-12-29T13:37:26;3.67;;;1.80;;
5153;SDS011;2595;53.584;10.084;2022-12-29T13:39:56;4.33;;;1.50;;
5153;SDS011;2595;53.584;10.084;2022-12-29T13:42:28;3.53;;;1.30;;
5153;SDS011;2595;53.584;10.084;2022-12-29T13:45:05;2.27;;;1.60;;
5153;SDS011;2595;53.584;10.084;2022-12-29T13:47:48;3.60;;;1.93;;
5153;SDS011;2595;53.584;10.084;2022-12-29T13:50:24;2.20;;;1.57;;
5153;SDS011;2595;53.584;10.084;2022-12-29T13:55:47;1.50;;;1.40;;
5153;SDS011;2595;53.584;10.084;2022-12-29T14:01:00;6.03;;;1.37;;
5153;SDS011;2595;53.584;10.084;2022-12-29T14:06:29;1.50;;;1.00;;
5153;SDS011;2595;53.584;10.084;2022-12-29T14:09:01;2.47;;;1.40;;
5153;SDS011;2595;53.584;10.084;2022-12-29T14:11:47;5.60;;;1.17;;
5153;SDS011;2595;53.584;10.084;2022-12-29T14:14:23;2.30;;;1.30;;
5153;SDS011;2595;53.584;10.084;2022-12-29T14:16:49;1.77;;;1.67;;
5153;SDS011;2595;53.584;10.084;2022-12-29T14:19:17;2.37;;;1.17;;
5153;SDS011;2595;53.584;10.084;2022-12-29T14:21:59;1.13;;;0.90;;
5153;SDS011;2595;53.584;10.084;2022-12-29T14:24:38;6.23;;;1.27;;
5153;SDS011;2595;53.584;10.084;2022-12-29T14:34:54;1.87;;;1.43;;
5153;SDS011;2595;53.584;10.084;2022-12-29T14:37:28;1.43;;;1.10;;
5153;SDS011;2595;53.584;10.084;2022-12-29T14:40:02;1.17;;;1.00;;
5153;SDS011;2595;53.584;10.084;2022-12-29T14:42:43;1.97;;;1.87;;
5153;SDS011;2595;53.584;10.084;2022-12-29T14:47:48;3.00;;;1.50;;
5153;SDS011;2595;53.584;10.084;2022-12-29T14:50:16;1.97;;;1.80;;
5153;SDS011;2595;53.584;10.084;2022-12-29T14:52:47;1.83;;;1.00;;
5153;SDS011;2595;53.584;10.084;2022-12-29T14:57:43;2.07;;;1.97;;
5153;SDS011;2595;53.584;10.084;2022-12-29T15:03:07;2.10;;;1.37;;
5153;SDS011;2595;53.584;10.084;2022-12-29T15:05:47;2.33;;;1.40;;
5153;SDS011;2595;53.584;10.084;2022-12-29T15:08:17;1.37;;;1.20;;
5153;SDS011;2595;53.584;10.084;2022-12-29T15:10:48;3.30;;;1.40;;
5153;SDS011;2595;53.584;10.084;2022-12-29T15:13:24;2.93;;;1.80;;
5153;SDS011;2595;53.584;10.084;2022-12-29T15:15:57;1.43;;;1.33;;
5153;SDS011;2595;53.584;10.084;2022-12-29T15:18:24;5.10;;;1.50;;
5153;SDS011;2595;53.584;10.084;2022-12-29T15:20:58;4.17;;;1.57;;
5153;SDS011;2595;53.584;10.084;2022-12-29T15:23:29;5.63;;;2.70;;
5153;SDS011;2595;53.584;10.084;2022-12-29T15:25:58;2.23;;;1.93;;
5153;SDS011;2595;53.584;10.084;2022-12-29T15:28:25;1.70;;;1.60;;
5153;SDS011;2595;53.584;10.084;2022-12-29T15:31:02;5.50;;;2.57;;
5153;SDS011;2595;53.584;10.084;2022-12-29T15:33:29;3.27;;;1.47;;
5153;SDS011;2595;53.584;10.084;2022-12-29T15:35:56;3.17;;;2.00;;
5153;SDS011;2595;53.584;10.084;2022-12-29T15:38:28;3.80;;;2.33;;
5153;SDS011;2595;53.584;10.084;2022-12-29T15:40:56;4.70;;;1.67;;
5153;SDS011;2595;53.584;10.084;2022-12-29T15:46:04;2.90;;;1.90;;
5153;SDS011;2595;53.584;10.084;2022-12-29T15:48:30;10.40;;;2.17;;
5153;SDS011;2595;53.584;10.084;2022-12-29T15:50:57;2.03;;;1.83;;
5153;SDS011;2595;53.584;10.084;2022-12-29T15:53:25;3.50;;;2.27;;
5153;SDS011;2595;53.584;10.084;2022-12-29T15:56:00;4.70;;;2.33;;
5153;SDS011;2595;53.584;10.084;2022-12-29T15:58:31;2.43;;;2.00;;
5153;SDS011;2595;53.584;10.084;2022-12-29T16:01:04;2.83;;;2.17;;
5153;SDS011;2595;53.584;10.084;2022-12-29T16:03:31;5.53;;;3.57;;
5153;SDS011;2595;53.584;10.084;2022-12-29T16:06:09;3.03;;;2.27;;
5153;SDS011;2595;53.584;10.084;2022-12-29T16:08:54;3.10;;;2.40;;
5153;SDS011;2595;53.584;10.084;2022-12-29T16:11:40;3.60;;;2.53;;
5153;SDS011;2595;53.584;10.084;2022-12-29T16:14:13;4.73;;;3.70;;
5153;SDS011;2595;53.584;10.084;2022-12-29T16:16:42;5.23;;;2.73;;
5153;SDS011;2595;53.584;10.084;2022-12-29T16:19:11;3.03;;;2.73;;
5153;SDS011;2595;53.584;10.084;2022-12-29T16:21:49;3.73;;;2.50;;
5153;SDS011;2595;53.584;10.084;2022-12-29T16:24:16;7.00;;;2.73;;
5153;SDS011;2595;53.584;10.084;2022-12-29T16:29:19;3.97;;;2.90;;
5153;SDS011;2595;53.584;10.084;2022-12-29T16:31:50;3.30;;;2.70;;
5153;SDS011;2595;53.584;10.084;2022-12-29T16:34:27;5.00;;;3.17;;
5153;SDS011;2595;53.584;10.084;2022-12-29T16:36:59;3.90;;;2.80;;
5153;SDS011;2595;53.584;10.084;2022-12-29T16:39:31;3.20;;;2.53;;
5153;SDS011;2595;53.584;10.084;2022-12-29T16:42:32;6.00;;;3.50;;
5153;SDS011;2595;53.584;10.084;2022-12-29T16:47:45;9.97;;;2.90;;
5153;SDS011;2595;53.584;10.084;2022-12-29T16:50:29;5.47;;;2.60;;
5153;SDS011;2595;53.584;10.084;2022-12-29T16:52:55;4.57;;;2.60;;
5153;SDS011;2595;53.584;10.084;2022-12-29T16:55:21;2.80;;;2.53;;
5153;SDS011;2595;53.584;10.084;2022-12-29T16:57:47;7.03;;;3.10;;
5153;SDS011;2595;53.584;10.084;2022-12-29T17:00:18;7.07;;;3.20;;
5153;SDS011;2595;53.584;10.084;2022-12-29T17:02:53;4.57;;;4.17;;
5153;SDS011;2595;53.584;10.084;2022-12-29T17:05:21;4.17;;;3.47;;
5153;SDS011;2595;53.584;10.084;2022-12-29T17:07:47;3.10;;;2.47;;
5153;SDS011;2595;53.584;10.084;2022-12-29T17:10:13;6.10;;;2.57;;
5153;SDS011;2595;53.584;10.084;2022-12-29T17:12:39;3.70;;;2.50;;
5153;SDS011;2595;53.584;10.084;2022-12-29T17:15:11;4.27;;;3.23;;
5153;SDS011;2595;53.584;10.084;2022-12-29T17:17:49;3.40;;;2.43;;
5153;SDS011;2595;53.584;10.084;2022-12-29T17:22:49;7.00;;;2.73;;
5153;SDS011;2595;53.584;10.084;2022-12-29T17:25:19;4.47;;;3.10;;
5153;SDS011;2595;53.584;10.084;2022-12-29T17:27:52;5.07;;;2.80;;
5153;SDS011;2595;53.584;10.084;2022-12-29T17:30:20;4.43;;;2.93;;
5153;SDS011;2595;53.584;10.084;2022-12-29T17:32:51;2.70;;;2.40;;
5153;SDS011;2595;53.584;10.084;2022-12-29T17:35:20;2.83;;;2.60;;
5153;SDS011;2595;53.584;10.084;2022-12-29T17:37:47;4.70;;;3.10;;
5153;SDS011;2595;53.584;10.084;2022-12-29T17:40:14;3.80;;;2.47;;
5153;SDS011;2595;53.584;10.084;2022-12-29T17:42:44;3.67;;;3.23;;
5153;SDS011;2595;53.584;10.084;2022-12-29T17:45:15;2.77;;;2.40;;
5153;SDS011;2595;53.584;10.084;2022-12-29T17:47:44;3.60;;;3.20;;
5153;SDS011;2595;53.584;10.084;2022-12-29T17:50:31;2.97;;;2.77;;
5153;SDS011;2595;53.584;10.084;2022-12-29T17:52:57;3.07;;;2.30;;
5153;SDS011;2595;53.584;10.084;2022-12-29T17:55:28;3.73;;;2.50;;
5153;SDS011;2595;53.584;10.084;2022-12-29T17:57:54;3.50;;;2.70;;
5153;SDS011;2595;53.584;10.084;2022-12-29T18:00:21;2.80;;;2.33;;